sensor_id;sensor_type;location;lat;lon;timestamp;P1;durP1;ratioP1;P2;durP2;ratioP2
39264;SDS011;42646;51.910;7.724;2023-03-01T00:01:39;12.93;;;7.25;;
39264;SDS011;42646;51.910;7.724;2023-03-01T00:04:09;15.10;;;7.72;;
39264;SDS011;42646;51.910;7.724;2023-03-01T00:06:37;11.43;;;7.20;;
39264;SDS011;42646;51.910;7.724;2023-03-01T00:09:05;12.68;;;7.72;;
39264;SDS011;42646;51.910;7.724;2023-03-01T00:11:34;10.90;;;7.35;;
39264;SDS011;42646;51.910;7.724;2023-03-01T00:14:02;12.27;;;7.47;;
39264;SDS011;42646;51.910;7.724;2023-03-01T00:16:36;11.60;;;7.40;;
39264;SDS011;42646;51.910;7.724;2023-03-01T00:19:06;10.50;;;7.05;;
39264;SDS011;42646;51.910;7.724;2023-03-01T00:21:35;11.18;;;6.80;;
39264;SDS011;42646;51.910;7.724;2023-03-01T00:24:03;11.10;;;7.45;;
39264;SDS011;42646;51.910;7.724;2023-03-01T00:26:31;11.48;;;7.50;;
39264;SDS011;42646;51.910;7.724;2023-03-01T00:28:59;9.98;;;6.93;;
39264;SDS011;42646;51.910;7.724;2023-03-01T00:31:29;10.73;;;7.15;;
39264;SDS011;42646;51.910;7.724;2023-03-01T00:33:59;10.85;;;7.57;;
39264;SDS011;42646;51.910;7.724;2023-03-01T00:36:28;11.48;;;7.22;;
39264;SDS011;42646;51.910;7.724;2023-03-01T00:38:59;11.20;;;7.20;;
39264;SDS011;42646;51.910;7.724;2023-03-01T00:41:26;9.75;;;7.38;;
39264;SDS011;42646;51.910;7.724;2023-03-01T00:43:55;11.25;;;7.60;;
39264;SDS011;42646;51.910;7.724;2023-03-01T00:46:24;10.95;;;6.90;;
39264;SDS011;42646;51.910;7.724;2023-03-01T00:48:55;11.85;;;7.65;;
39264;SDS011;42646;51.910;7.724;2023-03-01T00:51:24;11.27;;;7.45;;
39264;SDS011;42646;51.910;7.724;2023-03-01T00:53:57;13.93;;;7.22;;
39264;SDS011;42646;51.910;7.724;2023-03-01T00:56:29;12.32;;;7.40;;
39264;SDS011;42646;51.910;7.724;2023-03-01T00:58:58;12.15;;;7.68;;
39264;SDS011;42646;51.910;7.724;2023-03-01T01:01:26;11.02;;;7.13;;
39264;SDS011;42646;51.910;7.724;2023-03-01T01:03:57;11.88;;;7.53;;
39264;SDS011;42646;51.910;7.724;2023-03-01T01:06:26;12.65;;;8.02;;
39264;SDS011;42646;51.910;7.724;2023-03-01T01:08:56;12.13;;;7.75;;
39264;SDS011;42646;51.910;7.724;2023-03-01T01:11:26;11.50;;;7.90;;
39264;SDS011;42646;51.910;7.724;2023-03-01T01:13:55;12.52;;;8.40;;
39264;SDS011;42646;51.910;7.724;2023-03-01T01:16:25;12.95;;;8.50;;
39264;SDS011;42646;51.910;7.724;2023-03-01T01:18:55;14.57;;;9.65;;
39264;SDS011;42646;51.910;7.724;2023-03-01T01:21:23;15.05;;;9.02;;
39264;SDS011;42646;51.910;7.724;2023-03-01T01:23:53;13.25;;;8.00;;
39264;SDS011;42646;51.910;7.724;2023-03-01T01:26:23;16.38;;;8.75;;
39264;SDS011;42646;51.910;7.724;2023-03-01T01:28:54;15.88;;;8.65;;
39264;SDS011;42646;51.910;7.724;2023-03-01T01:31:23;12.40;;;7.40;;
39264;SDS011;42646;51.910;7.724;2023-03-01T01:33:51;11.48;;;6.82;;
39264;SDS011;42646;51.910;7.724;2023-03-01T01:36:20;13.70;;;8.15;;
39264;SDS011;42646;51.910;7.724;2023-03-01T01:38:48;11.90;;;7.47;;
39264;SDS011;42646;51.910;7.724;2023-03-01T01:41:17;10.52;;;7.13;;
39264;SDS011;42646;51.910;7.724;2023-03-01T01:43:48;11.25;;;7.38;;
39264;SDS011;42646;51.910;7.724;2023-03-01T01:46:21;10.63;;;6.75;;
39264;SDS011;42646;51.910;7.724;2023-03-01T01:48:56;11.52;;;6.93;;
39264;SDS011;42646;51.910;7.724;2023-03-01T01:51:28;13.10;;;7.30;;
39264;SDS011;42646;51.910;7.724;2023-03-01T01:54:06;10.75;;;6.45;;
39264;SDS011;42646;51.910;7.724;2023-03-01T01:56:37;12.65;;;6.85;;
39264;SDS011;42646;51.910;7.724;2023-03-01T01:59:11;10.18;;;6.38;;
39264;SDS011;42646;51.910;7.724;2023-03-01T02:01:40;11.50;;;6.85;;
39264;SDS011;42646;51.910;7.724;2023-03-01T02:04:07;11.63;;;7.28;;
39264;SDS011;42646;51.910;7.724;2023-03-01T02:06:37;10.50;;;6.22;;
39264;SDS011;42646;51.910;7.724;2023-03-01T02:09:11;10.20;;;6.40;;
39264;SDS011;42646;51.910;7.724;2023-03-01T02:11:41;12.07;;;7.45;;
39264;SDS011;42646;51.910;7.724;2023-03-01T02:14:12;9.50;;;6.95;;
39264;SDS011;42646;51.910;7.724;2023-03-01T02:16:39;10.27;;;6.22;;
39264;SDS011;42646;51.910;7.724;2023-03-01T02:19:08;11.35;;;7.00;;
39264;SDS011;42646;51.910;7.724;2023-03-01T02:21:49;10.43;;;6.40;;
39264;SDS011;42646;51.910;7.724;2023-03-01T02:24:28;10.43;;;6.13;;
39264;SDS011;42646;51.910;7.724;2023-03-01T02:27:03;9.30;;;6.38;;
39264;SDS011;42646;51.910;7.724;2023-03-01T02:29:34;9.60;;;6.75;;
39264;SDS011;42646;51.910;7.724;2023-03-01T02:32:03;11.48;;;6.93;;
39264;SDS011;42646;51.910;7.724;2023-03-01T02:34:33;9.80;;;6.10;;
39264;SDS011;42646;51.910;7.724;2023-03-01T02:37:03;8.77;;;5.88;;
39264;SDS011;42646;51.910;7.724;2023-03-01T02:39:33;9.57;;;6.27;;
39264;SDS011;42646;51.910;7.724;2023-03-01T02:42:09;9.30;;;6.00;;
39264;SDS011;42646;51.910;7.724;2023-03-01T02:44:44;9.00;;;6.40;;
39264;SDS011;42646;51.910;7.724;2023-03-01T02:47:11;11.27;;;6.85;;
39264;SDS011;42646;51.910;7.724;2023-03-01T02:49:40;11.00;;;6.32;;
39264;SDS011;42646;51.910;7.724;2023-03-01T02:52:11;10.20;;;6.30;;
39264;SDS011;42646;51.910;7.724;2023-03-01T02:54:48;9.73;;;6.32;;
39264;SDS011;42646;51.910;7.724;2023-03-01T02:57:21;10.15;;;6.60;;
39264;SDS011;42646;51.910;7.724;2023-03-01T02:59:52;10.65;;;6.55;;
39264;SDS011;42646;51.910;7.724;2023-03-01T03:02:24;9.93;;;6.60;;
39264;SDS011;42646;51.910;7.724;2023-03-01T03:05:08;10.32;;;6.38;;
39264;SDS011;42646;51.910;7.724;2023-03-01T03:07:39;10.48;;;6.03;;
39264;SDS011;42646;51.910;7.724;2023-03-01T03:10:09;10.40;;;5.95;;
39264;SDS011;42646;51.910;7.724;2023-03-01T03:12:40;10.57;;;6.63;;
39264;SDS011;42646;51.910;7.724;2023-03-01T03:15:10;9.48;;;6.00;;
39264;SDS011;42646;51.910;7.724;2023-03-01T03:17:39;9.25;;;6.03;;
39264;SDS011;42646;51.910;7.724;2023-03-01T03:20:12;9.25;;;5.90;;
39264;SDS011;42646;51.910;7.724;2023-03-01T03:22:46;9.27;;;6.40;;
39264;SDS011;42646;51.910;7.724;2023-03-01T03:25:16;9.60;;;6.43;;
39264;SDS011;42646;51.910;7.724;2023-03-01T03:27:46;9.80;;;6.15;;
39264;SDS011;42646;51.910;7.724;2023-03-01T03:30:20;9.45;;;6.50;;
39264;SDS011;42646;51.910;7.724;2023-03-01T03:32:47;9.95;;;6.43;;
39264;SDS011;42646;51.910;7.724;2023-03-01T03:35:18;10.95;;;6.35;;
39264;SDS011;42646;51.910;7.724;2023-03-01T03:37:48;12.02;;;6.43;;
39264;SDS011;42646;51.910;7.724;2023-03-01T03:43:01;8.20;;;5.70;;
39264;SDS011;42646;51.910;7.724;2023-03-01T03:45:31;11.82;;;6.60;;
39264;SDS011;42646;51.910;7.724;2023-03-01T03:48:00;10.00;;;6.57;;
39264;SDS011;42646;51.910;7.724;2023-03-01T03:50:27;11.05;;;6.05;;
39264;SDS011;42646;51.910;7.724;2023-03-01T03:52:55;9.88;;;6.38;;
39264;SDS011;42646;51.910;7.724;2023-03-01T03:55:23;9.25;;;6.38;;
39264;SDS011;42646;51.910;7.724;2023-03-01T03:57:57;10.27;;;6.75;;
39264;SDS011;42646;51.910;7.724;2023-03-01T04:00:28;9.55;;;6.30;;
39264;SDS011;42646;51.910;7.724;2023-03-01T04:02:58;11.20;;;6.60;;
39264;SDS011;42646;51.910;7.724;2023-03-01T04:05:26;10.45;;;6.53;;
39264;SDS011;42646;51.910;7.724;2023-03-01T04:07:54;9.77;;;6.13;;
39264;SDS011;42646;51.910;7.724;2023-03-01T04:10:34;9.88;;;6.72;;
39264;SDS011;42646;51.910;7.724;2023-03-01T04:13:04;13.05;;;7.13;;
39264;SDS011;42646;51.910;7.724;2023-03-01T04:15:33;10.85;;;7.03;;
39264;SDS011;42646;51.910;7.724;2023-03-01T04:18:02;10.43;;;6.43;;
39264;SDS011;42646;51.910;7.724;2023-03-01T04:20:32;10.10;;;6.63;;
39264;SDS011;42646;51.910;7.724;2023-03-01T04:23:04;14.85;;;7.07;;
39264;SDS011;42646;51.910;7.724;2023-03-01T04:25:42;9.75;;;6.43;;
39264;SDS011;42646;51.910;7.724;2023-03-01T04:28:13;10.10;;;5.97;;
39264;SDS011;42646;51.910;7.724;2023-03-01T04:30:40;9.95;;;6.20;;
39264;SDS011;42646;51.910;7.724;2023-03-01T04:33:11;11.75;;;6.07;;
39264;SDS011;42646;51.910;7.724;2023-03-01T04:35:38;8.80;;;6.25;;
39264;SDS011;42646;51.910;7.724;2023-03-01T04:38:07;10.55;;;7.15;;
39264;SDS011;42646;51.910;7.724;2023-03-01T04:40:35;11.27;;;6.63;;
39264;SDS011;42646;51.910;7.724;2023-03-01T04:43:03;9.02;;;6.07;;
39264;SDS011;42646;51.910;7.724;2023-03-01T04:45:32;10.52;;;6.65;;
39264;SDS011;42646;51.910;7.724;2023-03-01T04:48:01;9.75;;;6.22;;
39264;SDS011;42646;51.910;7.724;2023-03-01T04:50:33;9.77;;;6.50;;
39264;SDS011;42646;51.910;7.724;2023-03-01T04:53:02;9.52;;;6.47;;
39264;SDS011;42646;51.910;7.724;2023-03-01T04:55:30;11.23;;;6.63;;
39264;SDS011;42646;51.910;7.724;2023-03-01T04:57:58;9.10;;;6.03;;
39264;SDS011;42646;51.910;7.724;2023-03-01T05:00:27;10.43;;;6.30;;
39264;SDS011;42646;51.910;7.724;2023-03-01T05:02:56;11.05;;;6.55;;
39264;SDS011;42646;51.910;7.724;2023-03-01T05:05:27;9.73;;;6.37;;
39264;SDS011;42646;51.910;7.724;2023-03-01T05:07:58;10.02;;;6.35;;
39264;SDS011;42646;51.910;7.724;2023-03-01T05:10:28;11.93;;;7.03;;
39264;SDS011;42646;51.910;7.724;2023-03-01T05:12:59;10.87;;;7.03;;
39264;SDS011;42646;51.910;7.724;2023-03-01T05:15:28;10.18;;;6.30;;
39264;SDS011;42646;51.910;7.724;2023-03-01T05:17:57;9.82;;;6.60;;
39264;SDS011;42646;51.910;7.724;2023-03-01T05:20:27;9.45;;;6.28;;
39264;SDS011;42646;51.910;7.724;2023-03-01T05:22:59;10.13;;;6.43;;
39264;SDS011;42646;51.910;7.724;2023-03-01T05:25:31;10.38;;;6.60;;
39264;SDS011;42646;51.910;7.724;2023-03-01T05:28:00;10.57;;;6.65;;
39264;SDS011;42646;51.910;7.724;2023-03-01T05:30:31;10.68;;;6.22;;
39264;SDS011;42646;51.910;7.724;2023-03-01T05:35:53;9.63;;;5.82;;
39264;SDS011;42646;51.910;7.724;2023-03-01T05:38:22;9.77;;;6.38;;
39264;SDS011;42646;51.910;7.724;2023-03-01T05:40:50;10.05;;;6.60;;
39264;SDS011;42646;51.910;7.724;2023-03-01T05:43:20;10.70;;;6.22;;
39264;SDS011;42646;51.910;7.724;2023-03-01T05:45:47;10.90;;;6.50;;
39264;SDS011;42646;51.910;7.724;2023-03-01T05:48:16;9.70;;;6.03;;
39264;SDS011;42646;51.910;7.724;2023-03-01T05:50:45;8.68;;;6.15;;
39264;SDS011;42646;51.910;7.724;2023-03-01T05:53:14;9.95;;;6.80;;
39264;SDS011;42646;51.910;7.724;2023-03-01T05:55:44;9.82;;;6.30;;
39264;SDS011;42646;51.910;7.724;2023-03-01T05:58:15;12.23;;;6.78;;
39264;SDS011;42646;51.910;7.724;2023-03-01T06:00:44;10.00;;;6.45;;
39264;SDS011;42646;51.910;7.724;2023-03-01T06:03:14;10.77;;;6.85;;
39264;SDS011;42646;51.910;7.724;2023-03-01T06:05:44;11.52;;;7.32;;
39264;SDS011;42646;51.910;7.724;2023-03-01T06:08:13;12.15;;;6.63;;
39264;SDS011;42646;51.910;7.724;2023-03-01T06:10:41;9.55;;;6.50;;
39264;SDS011;42646;51.910;7.724;2023-03-01T06:13:10;10.70;;;6.82;;
39264;SDS011;42646;51.910;7.724;2023-03-01T06:15:38;10.95;;;6.97;;
39264;SDS011;42646;51.910;7.724;2023-03-01T06:18:05;10.80;;;6.70;;
39264;SDS011;42646;51.910;7.724;2023-03-01T06:20:33;10.90;;;7.45;;
39264;SDS011;42646;51.910;7.724;2023-03-01T06:23:01;10.93;;;7.15;;
39264;SDS011;42646;51.910;7.724;2023-03-01T06:25:29;11.90;;;7.38;;
39264;SDS011;42646;51.910;7.724;2023-03-01T06:28:00;13.90;;;7.70;;
39264;SDS011;42646;51.910;7.724;2023-03-01T06:30:29;12.65;;;7.65;;
39264;SDS011;42646;51.910;7.724;2023-03-01T06:32:58;13.13;;;7.13;;
39264;SDS011;42646;51.910;7.724;2023-03-01T06:35:28;12.65;;;7.32;;
39264;SDS011;42646;51.910;7.724;2023-03-01T06:37:58;12.73;;;7.47;;
39264;SDS011;42646;51.910;7.724;2023-03-01T06:40:27;11.52;;;7.43;;
39264;SDS011;42646;51.910;7.724;2023-03-01T06:42:57;14.70;;;7.47;;
39264;SDS011;42646;51.910;7.724;2023-03-01T06:45:26;10.13;;;7.05;;
39264;SDS011;42646;51.910;7.724;2023-03-01T06:48:02;10.88;;;6.85;;
39264;SDS011;42646;51.910;7.724;2023-03-01T06:50:57;13.07;;;6.70;;
39264;SDS011;42646;51.910;7.724;2023-03-01T06:53:27;11.75;;;6.57;;
39264;SDS011;42646;51.910;7.724;2023-03-01T06:55:55;14.25;;;7.03;;
39264;SDS011;42646;51.910;7.724;2023-03-01T06:58:47;15.55;;;7.03;;
39264;SDS011;42646;51.910;7.724;2023-03-01T07:01:14;13.07;;;7.20;;
39264;SDS011;42646;51.910;7.724;2023-03-01T07:03:45;13.13;;;6.78;;
39264;SDS011;42646;51.910;7.724;2023-03-01T07:06:12;10.35;;;6.57;;
39264;SDS011;42646;51.910;7.724;2023-03-01T07:08:42;13.18;;;6.47;;
39264;SDS011;42646;51.910;7.724;2023-03-01T07:11:09;10.20;;;6.82;;
39264;SDS011;42646;51.910;7.724;2023-03-01T07:13:37;10.20;;;6.50;;
39264;SDS011;42646;51.910;7.724;2023-03-01T07:16:06;12.30;;;7.07;;
39264;SDS011;42646;51.910;7.724;2023-03-01T07:18:35;11.50;;;7.07;;
39264;SDS011;42646;51.910;7.724;2023-03-01T07:21:08;12.35;;;6.85;;
39264;SDS011;42646;51.910;7.724;2023-03-01T07:23:38;12.00;;;7.32;;
39264;SDS011;42646;51.910;7.724;2023-03-01T07:26:06;12.63;;;8.60;;
39264;SDS011;42646;51.910;7.724;2023-03-01T07:28:34;13.88;;;10.32;;
39264;SDS011;42646;51.910;7.724;2023-03-01T07:31:06;13.80;;;9.82;;
39264;SDS011;42646;51.910;7.724;2023-03-01T07:33:33;15.25;;;8.63;;
39264;SDS011;42646;51.910;7.724;2023-03-01T07:36:02;12.07;;;8.18;;
39264;SDS011;42646;51.910;7.724;2023-03-01T07:38:32;11.00;;;6.88;;
39264;SDS011;42646;51.910;7.724;2023-03-01T07:41:03;10.32;;;7.10;;
39264;SDS011;42646;51.910;7.724;2023-03-01T07:43:31;11.07;;;7.20;;
39264;SDS011;42646;51.910;7.724;2023-03-01T07:45:59;10.68;;;6.75;;
39264;SDS011;42646;51.910;7.724;2023-03-01T07:48:27;9.40;;;6.47;;
39264;SDS011;42646;51.910;7.724;2023-03-01T07:50:57;11.10;;;6.75;;
39264;SDS011;42646;51.910;7.724;2023-03-01T07:53:25;9.68;;;6.22;;
39264;SDS011;42646;51.910;7.724;2023-03-01T07:56:02;10.07;;;6.63;;
39264;SDS011;42646;51.910;7.724;2023-03-01T07:58:30;9.25;;;6.00;;
39264;SDS011;42646;51.910;7.724;2023-03-01T08:01:00;10.07;;;6.80;;
39264;SDS011;42646;51.910;7.724;2023-03-01T08:03:29;11.93;;;6.80;;
39264;SDS011;42646;51.910;7.724;2023-03-01T08:06:01;10.25;;;6.72;;
39264;SDS011;42646;51.910;7.724;2023-03-01T08:08:29;10.75;;;6.43;;
39264;SDS011;42646;51.910;7.724;2023-03-01T08:10:57;10.48;;;6.43;;
39264;SDS011;42646;51.910;7.724;2023-03-01T08:13:26;9.98;;;6.88;;
39264;SDS011;42646;51.910;7.724;2023-03-01T08:16:00;9.48;;;6.38;;
39264;SDS011;42646;51.910;7.724;2023-03-01T08:18:29;9.05;;;6.03;;
39264;SDS011;42646;51.910;7.724;2023-03-01T08:21:01;9.45;;;6.30;;
39264;SDS011;42646;51.910;7.724;2023-03-01T08:23:29;9.63;;;6.60;;
39264;SDS011;42646;51.910;7.724;2023-03-01T08:26:02;12.05;;;6.97;;
39264;SDS011;42646;51.910;7.724;2023-03-01T08:28:33;10.93;;;6.72;;
39264;SDS011;42646;51.910;7.724;2023-03-01T08:31:02;10.32;;;6.55;;
39264;SDS011;42646;51.910;7.724;2023-03-01T08:33:31;10.82;;;6.68;;
39264;SDS011;42646;51.910;7.724;2023-03-01T08:36:02;11.48;;;6.85;;
39264;SDS011;42646;51.910;7.724;2023-03-01T08:38:33;11.57;;;6.38;;
39264;SDS011;42646;51.910;7.724;2023-03-01T08:41:00;10.75;;;6.22;;
39264;SDS011;42646;51.910;7.724;2023-03-01T08:43:28;10.18;;;6.03;;
39264;SDS011;42646;51.910;7.724;2023-03-01T08:45:57;12.45;;;6.50;;
39264;SDS011;42646;51.910;7.724;2023-03-01T08:48:27;10.27;;;6.28;;
39264;SDS011;42646;51.910;7.724;2023-03-01T08:50:56;10.30;;;6.30;;
39264;SDS011;42646;51.910;7.724;2023-03-01T08:53:24;11.32;;;5.93;;
39264;SDS011;42646;51.910;7.724;2023-03-01T08:55:51;9.32;;;5.70;;
39264;SDS011;42646;51.910;7.724;2023-03-01T08:58:19;10.27;;;6.03;;
39264;SDS011;42646;51.910;7.724;2023-03-01T09:00:47;8.85;;;5.25;;
39264;SDS011;42646;51.910;7.724;2023-03-01T09:03:17;9.35;;;5.93;;
39264;SDS011;42646;51.910;7.724;2023-03-01T09:05:45;11.70;;;6.05;;
39264;SDS011;42646;51.910;7.724;2023-03-01T09:08:13;9.95;;;6.10;;
39264;SDS011;42646;51.910;7.724;2023-03-01T09:10:41;12.32;;;6.07;;
39264;SDS011;42646;51.910;7.724;2023-03-01T09:13:09;12.40;;;6.50;;
39264;SDS011;42646;51.910;7.724;2023-03-01T09:15:38;11.02;;;5.97;;
39264;SDS011;42646;51.910;7.724;2023-03-01T09:18:06;9.25;;;6.05;;
39264;SDS011;42646;51.910;7.724;2023-03-01T09:20:36;10.85;;;7.60;;
39264;SDS011;42646;51.910;7.724;2023-03-01T09:23:04;10.57;;;6.07;;
39264;SDS011;42646;51.910;7.724;2023-03-01T09:25:31;11.18;;;6.63;;
39264;SDS011;42646;51.910;7.724;2023-03-01T09:28:02;12.15;;;6.13;;
39264;SDS011;42646;51.910;7.724;2023-03-01T09:30:30;9.75;;;6.30;;
39264;SDS011;42646;51.910;7.724;2023-03-01T09:32:57;10.38;;;6.30;;
39264;SDS011;42646;51.910;7.724;2023-03-01T09:35:25;10.13;;;6.28;;
39264;SDS011;42646;51.910;7.724;2023-03-01T09:37:54;11.57;;;7.80;;
39264;SDS011;42646;51.910;7.724;2023-03-01T09:40:22;11.88;;;7.55;;
39264;SDS011;42646;51.910;7.724;2023-03-01T09:42:54;9.50;;;5.57;;
39264;SDS011;42646;51.910;7.724;2023-03-01T09:45:27;10.13;;;5.50;;
39264;SDS011;42646;51.910;7.724;2023-03-01T09:48:01;10.73;;;5.65;;
39264;SDS011;42646;51.910;7.724;2023-03-01T09:53:04;9.90;;;5.55;;
39264;SDS011;42646;51.910;7.724;2023-03-01T09:55:37;9.02;;;5.63;;
39264;SDS011;42646;51.910;7.724;2023-03-01T09:58:16;7.35;;;4.93;;
39264;SDS011;42646;51.910;7.724;2023-03-01T10:00:55;11.90;;;5.53;;
39264;SDS011;42646;51.910;7.724;2023-03-01T10:03:28;11.00;;;6.20;;
39264;SDS011;42646;51.910;7.724;2023-03-01T10:06:04;9.63;;;6.32;;
39264;SDS011;42646;51.910;7.724;2023-03-01T10:09:00;8.70;;;5.47;;
39264;SDS011;42646;51.910;7.724;2023-03-01T10:11:35;10.52;;;6.03;;
39264;SDS011;42646;51.910;7.724;2023-03-01T10:14:07;9.00;;;6.15;;
39264;SDS011;42646;51.910;7.724;2023-03-01T10:16:48;10.50;;;6.50;;
39264;SDS011;42646;51.910;7.724;2023-03-01T10:19:21;12.32;;;6.47;;
39264;SDS011;42646;51.910;7.724;2023-03-01T10:21:52;12.55;;;6.75;;
39264;SDS011;42646;51.910;7.724;2023-03-01T10:24:21;10.57;;;6.03;;
39264;SDS011;42646;51.910;7.724;2023-03-01T10:26:52;11.45;;;6.88;;
39264;SDS011;42646;51.910;7.724;2023-03-01T10:29:24;11.48;;;6.70;;
39264;SDS011;42646;51.910;7.724;2023-03-01T10:31:55;11.05;;;7.10;;
39264;SDS011;42646;51.910;7.724;2023-03-01T10:34:27;10.52;;;6.78;;
39264;SDS011;42646;51.910;7.724;2023-03-01T10:39:26;10.93;;;6.90;;
39264;SDS011;42646;51.910;7.724;2023-03-01T10:41:55;10.98;;;6.60;;
39264;SDS011;42646;51.910;7.724;2023-03-01T10:44:37;10.17;;;7.07;;
39264;SDS011;42646;51.910;7.724;2023-03-01T10:47:15;10.48;;;6.60;;
39264;SDS011;42646;51.910;7.724;2023-03-01T10:49:52;10.93;;;6.88;;
39264;SDS011;42646;51.910;7.724;2023-03-01T10:52:24;11.85;;;6.43;;
39264;SDS011;42646;51.910;7.724;2023-03-01T10:54:56;10.82;;;6.63;;
39264;SDS011;42646;51.910;7.724;2023-03-01T10:57:31;10.93;;;6.70;;
39264;SDS011;42646;51.910;7.724;2023-03-01T11:00:20;10.40;;;6.90;;
39264;SDS011;42646;51.910;7.724;2023-03-01T11:05:49;13.43;;;6.63;;
39264;SDS011;42646;51.910;7.724;2023-03-01T11:11:25;11.55;;;6.80;;
39264;SDS011;42646;51.910;7.724;2023-03-01T11:14:00;10.70;;;6.63;;
39264;SDS011;42646;51.910;7.724;2023-03-01T11:16:58;10.93;;;7.00;;
39264;SDS011;42646;51.910;7.724;2023-03-01T11:19:28;11.13;;;7.10;;
39264;SDS011;42646;51.910;7.724;2023-03-01T11:21:58;13.10;;;6.68;;
39264;SDS011;42646;51.910;7.724;2023-03-01T11:24:33;13.75;;;6.93;;
39264;SDS011;42646;51.910;7.724;2023-03-01T11:27:11;13.32;;;6.60;;
39264;SDS011;42646;51.910;7.724;2023-03-01T11:29:44;11.85;;;6.90;;
39264;SDS011;42646;51.910;7.724;2023-03-01T11:32:17;12.63;;;6.78;;
39264;SDS011;42646;51.910;7.724;2023-03-01T11:34:47;11.40;;;6.45;;
39264;SDS011;42646;51.910;7.724;2023-03-01T11:37:23;15.25;;;7.45;;
39264;SDS011;42646;51.910;7.724;2023-03-01T11:40:03;14.13;;;7.72;;
39264;SDS011;42646;51.910;7.724;2023-03-01T11:42:42;11.65;;;7.00;;
39264;SDS011;42646;51.910;7.724;2023-03-01T11:45:18;11.00;;;6.60;;
39264;SDS011;42646;51.910;7.724;2023-03-01T11:47:55;11.48;;;6.80;;
39264;SDS011;42646;51.910;7.724;2023-03-01T11:50:34;10.48;;;6.68;;
39264;SDS011;42646;51.910;7.724;2023-03-01T11:53:24;13.93;;;6.97;;
39264;SDS011;42646;51.910;7.724;2023-03-01T11:56:16;10.27;;;6.30;;
39264;SDS011;42646;51.910;7.724;2023-03-01T11:59:11;11.93;;;6.65;;
39264;SDS011;42646;51.910;7.724;2023-03-01T12:01:51;10.50;;;6.07;;
39264;SDS011;42646;51.910;7.724;2023-03-01T12:04:46;10.35;;;6.03;;
39264;SDS011;42646;51.910;7.724;2023-03-01T12:07:29;9.15;;;5.78;;
39264;SDS011;42646;51.910;7.724;2023-03-01T12:10:15;9.93;;;5.93;;
39264;SDS011;42646;51.910;7.724;2023-03-01T12:12:58;10.68;;;6.32;;
39264;SDS011;42646;51.910;7.724;2023-03-01T12:18:39;9.20;;;5.72;;
39264;SDS011;42646;51.910;7.724;2023-03-01T12:21:29;9.77;;;6.15;;
39264;SDS011;42646;51.910;7.724;2023-03-01T12:24:15;8.43;;;5.90;;
39264;SDS011;42646;51.910;7.724;2023-03-01T12:27:05;9.70;;;5.78;;
39264;SDS011;42646;51.910;7.724;2023-03-01T12:30:09;8.80;;;5.90;;
39264;SDS011;42646;51.910;7.724;2023-03-01T12:33:02;10.77;;;5.88;;
39264;SDS011;42646;51.910;7.724;2023-03-01T12:35:46;9.70;;;6.10;;
39264;SDS011;42646;51.910;7.724;2023-03-01T12:38:45;10.32;;;6.32;;
39264;SDS011;42646;51.910;7.724;2023-03-01T12:41:30;8.93;;;5.60;;
39264;SDS011;42646;51.910;7.724;2023-03-01T12:46:49;9.48;;;5.72;;
39264;SDS011;42646;51.910;7.724;2023-03-01T12:49:28;10.10;;;6.28;;
39264;SDS011;42646;51.910;7.724;2023-03-01T12:52:02;9.80;;;6.20;;
39264;SDS011;42646;51.910;7.724;2023-03-01T12:54:39;9.77;;;5.78;;
39264;SDS011;42646;51.910;7.724;2023-03-01T12:57:15;10.68;;;6.57;;
39264;SDS011;42646;51.910;7.724;2023-03-01T12:59:51;9.90;;;6.10;;
39264;SDS011;42646;51.910;7.724;2023-03-01T13:02:37;9.40;;;6.07;;
39264;SDS011;42646;51.910;7.724;2023-03-01T13:05:19;11.93;;;6.50;;
39264;SDS011;42646;51.910;7.724;2023-03-01T13:08:01;10.50;;;6.53;;
39264;SDS011;42646;51.910;7.724;2023-03-01T13:10:39;9.65;;;6.40;;
39264;SDS011;42646;51.910;7.724;2023-03-01T13:13:12;9.88;;;6.22;;
39264;SDS011;42646;51.910;7.724;2023-03-01T13:15:45;8.40;;;5.80;;
39264;SDS011;42646;51.910;7.724;2023-03-01T13:18:29;10.68;;;6.00;;
39264;SDS011;42646;51.910;7.724;2023-03-01T13:21:01;8.68;;;5.85;;
39264;SDS011;42646;51.910;7.724;2023-03-01T13:23:33;11.85;;;6.13;;
39264;SDS011;42646;51.910;7.724;2023-03-01T13:26:09;10.38;;;5.28;;
39264;SDS011;42646;51.910;7.724;2023-03-01T13:28:49;10.73;;;5.60;;
39264;SDS011;42646;51.910;7.724;2023-03-01T13:34:41;7.95;;;5.03;;
39264;SDS011;42646;51.910;7.724;2023-03-01T13:37:19;9.15;;;5.35;;
39264;SDS011;42646;51.910;7.724;2023-03-01T13:39:49;7.30;;;5.10;;
39264;SDS011;42646;51.910;7.724;2023-03-01T13:45:19;8.68;;;4.82;;
39264;SDS011;42646;51.910;7.724;2023-03-01T13:47:52;11.07;;;5.50;;
39264;SDS011;42646;51.910;7.724;2023-03-01T13:50:25;8.65;;;5.40;;
39264;SDS011;42646;51.910;7.724;2023-03-01T13:52:57;10.32;;;5.40;;
39264;SDS011;42646;51.910;7.724;2023-03-01T13:58:04;8.50;;;4.63;;
39264;SDS011;42646;51.910;7.724;2023-03-01T14:00:43;8.40;;;4.93;;
39264;SDS011;42646;51.910;7.724;2023-03-01T14:03:11;7.75;;;4.57;;
39264;SDS011;42646;51.910;7.724;2023-03-01T14:08:20;6.93;;;4.55;;
39264;SDS011;42646;51.910;7.724;2023-03-01T14:10:53;6.75;;;4.50;;
39264;SDS011;42646;51.910;7.724;2023-03-01T14:13:49;7.43;;;5.00;;
39264;SDS011;42646;51.910;7.724;2023-03-01T14:16:30;8.32;;;5.18;;
39264;SDS011;42646;51.910;7.724;2023-03-01T14:19:09;9.30;;;4.93;;
39264;SDS011;42646;51.910;7.724;2023-03-01T14:21:58;8.07;;;5.20;;
39264;SDS011;42646;51.910;7.724;2023-03-01T14:24:32;8.88;;;5.07;;
39264;SDS011;42646;51.910;7.724;2023-03-01T14:27:08;8.50;;;5.65;;
39264;SDS011;42646;51.910;7.724;2023-03-01T14:29:38;8.85;;;5.05;;
39264;SDS011;42646;51.910;7.724;2023-03-01T14:32:11;9.32;;;5.45;;
39264;SDS011;42646;51.910;7.724;2023-03-01T14:34:46;8.55;;;5.32;;
39264;SDS011;42646;51.910;7.724;2023-03-01T14:37:17;8.55;;;5.30;;
39264;SDS011;42646;51.910;7.724;2023-03-01T14:39:50;8.15;;;5.22;;
39264;SDS011;42646;51.910;7.724;2023-03-01T14:42:18;8.65;;;5.45;;
39264;SDS011;42646;51.910;7.724;2023-03-01T14:44:52;11.50;;;5.45;;
39264;SDS011;42646;51.910;7.724;2023-03-01T14:47:26;8.63;;;5.47;;
39264;SDS011;42646;51.910;7.724;2023-03-01T14:49:57;8.77;;;5.20;;
39264;SDS011;42646;51.910;7.724;2023-03-01T14:52:31;8.80;;;4.78;;
39264;SDS011;42646;51.910;7.724;2023-03-01T14:55:06;9.25;;;5.50;;
39264;SDS011;42646;51.910;7.724;2023-03-01T14:57:44;9.70;;;4.75;;
39264;SDS011;42646;51.910;7.724;2023-03-01T15:00:16;9.38;;;5.25;;
39264;SDS011;42646;51.910;7.724;2023-03-01T15:02:47;8.77;;;5.07;;
39264;SDS011;42646;51.910;7.724;2023-03-01T15:05:25;8.07;;;4.75;;
39264;SDS011;42646;51.910;7.724;2023-03-01T15:07:58;8.68;;;5.03;;
39264;SDS011;42646;51.910;7.724;2023-03-01T15:10:30;7.80;;;4.55;;
39264;SDS011;42646;51.910;7.724;2023-03-01T15:13:09;7.50;;;4.87;;
39264;SDS011;42646;51.910;7.724;2023-03-01T15:15:38;7.28;;;4.75;;
39264;SDS011;42646;51.910;7.724;2023-03-01T15:18:13;7.38;;;5.15;;
39264;SDS011;42646;51.910;7.724;2023-03-01T15:20:45;9.48;;;4.97;;
39264;SDS011;42646;51.910;7.724;2023-03-01T15:23:18;7.88;;;4.82;;
39264;SDS011;42646;51.910;7.724;2023-03-01T15:25:49;9.88;;;5.22;;
39264;SDS011;42646;51.910;7.724;2023-03-01T15:31:18;6.95;;;4.43;;
39264;SDS011;42646;51.910;7.724;2023-03-01T15:33:48;9.73;;;5.32;;
39264;SDS011;42646;51.910;7.724;2023-03-01T15:36:31;7.82;;;4.95;;
39264;SDS011;42646;51.910;7.724;2023-03-01T15:39:02;9.50;;;5.38;;
39264;SDS011;42646;51.910;7.724;2023-03-01T15:41:37;8.38;;;4.85;;
39264;SDS011;42646;51.910;7.724;2023-03-01T15:44:15;7.88;;;4.95;;
39264;SDS011;42646;51.910;7.724;2023-03-01T15:46:46;9.77;;;4.72;;